Latest Weather Observations for Moranbah Airport

IDQ60801

Issued at 11:32 pm EST Monday 27 April 2015 (issued every 30 minutes, with the page automatically refreshed every 10 minutes)

About weather observations | Map of weather stations | Latest weather observations for QLD | Other Formats
Station Details ID: 034035 Name: MORANBAH AIRPORT Lat: -22.06 Lon: 148.08 Height: 232.2 m
Data from the previous 72 hours. | See also: Recent months at Moranbah Airport
Date/Time
EST
Temp
°C
App
Temp
°C
Dew
Point
Rel
Hum
%
Delta-T
°C
Wind Press
QNH
hPa
Press
MSL
hPa
Rain
since 9 am
mm
Dir
 
Spd
km/h
Gust
km/h
Spd
kts
Gust
kts
27/11:00pm 11.3 9.4 0.4 47 4.5 CALM 0 0 0 0 1019.6 1018.5 0.0
27/10:30pm 11.6 8.3 -1.5 40 5.2 S 6 9 3 5 1019.5 1018.4 0.0
27/10:00pm 16.5 12.0 -0.2 32 7.2 S 13 13 7 7 1019.4 1018.3 0.0
27/09:30pm 16.0 11.8 -1.1 31 7.2 S 11 13 6 7 1019.3 1018.2 0.0
27/09:00pm 18.1 13.6 -0.2 29 8.0 S 13 15 7 8 1019.2 1018.1 0.0
27/08:30pm 17.9 13.8 -0.4 29 8.0 SSE 11 13 6 7 1019.1 1018.0 0.0
27/08:00pm 17.7 13.1 -1.0 28 8.0 SSE 13 15 7 8 1018.6 1017.5 0.0
27/07:30pm 18.9 14.1 0.0 28 8.4 SSE 15 17 8 9 1018.2 1017.1 0.0
27/07:00pm 19.5 14.9 -1.0 25 8.9 SSE 13 17 7 9 1017.8 1016.7 0.0
27/06:30pm 19.9 15.7 -1.2 24 9.2 ESE 11 13 6 7 1017.4 1016.3 0.0
27/06:00pm 22.0 17.7 -1.3 21 10.3 E 11 13 6 7 1017.1 1016.0 0.0
27/05:30pm 24.5 20.2 -1.3 18 11.7 E 11 15 6 8 1016.9 1015.8 0.0
27/05:00pm 26.1 21.8 -1.7 16 12.6 E 11 19 6 10 1016.6 1015.5 0.0
27/04:30pm 26.9 22.9 -1.9 15 13.1 SE 9 17 5 9 1016.4 1015.3 0.0
27/04:00pm 26.9 22.6 -1.9 15 13.1 SE 11 19 6 10 1016.1 1015.0 0.0
27/03:30pm 26.9 23.3 -1.9 15 13.1 ESE 7 15 4 8 1015.9 1014.8 0.0
27/03:00pm 26.9 22.5 -2.8 14 13.3 ESE 11 20 6 11 1015.9 1014.8 0.0
27/02:30pm 26.7 22.7 -2.1 15 13.1 SE 9 20 5 11 1016.0 1014.9 0.0
27/02:00pm 26.1 21.3 -2.5 15 12.8 E 13 22 7 12 1016.2 1015.1 0.0
27/01:30pm 25.7 21.5 -1.2 17 12.3 SSE 11 20 6 11 1016.5 1015.4 0.0
27/01:00pm 25.5 20.3 0.2 19 11.8 SSE 17 24 9 13 1017.1 1016.0 0.0
27/12:30pm 24.4 19.8 -0.7 19 11.5 SE 13 19 7 10 1017.6 1016.5 0.0
27/12:00pm 25.1 20.2 1.9 22 11.2 SE 17 26 9 14 1018.1 1017.0 0.0
27/11:30am 23.8 18.5 2.0 24 10.4 SE 19 28 10 15 1018.8 1017.7 0.0
27/11:00am 23.2 18.0 2.7 26 9.9 SSE 19 32 10 17 1019.3 1018.2 0.0
27/10:30am 22.2 16.4 2.3 27 9.5 SE 22 30 12 16 1019.9 1018.8 0.0
27/10:00am 21.7 15.2 2.9 29 9.0 SE 26 33 14 18 1020.4 1019.3 0.0
27/09:30am 20.8 14.8 3.1 31 8.5 SE 24 32 13 17 1020.6 1019.6 0.0
27/09:00am 20.0 12.9 3.3 33 7.9 SE 30 41 16 22 1020.7 1019.7 0.0
27/08:30am 18.8 12.0 3.0 35 7.4 SE 28 37 15 20 1020.5 1019.5 0.0
27/08:00am 17.0 10.9 2.6 38 6.6 SE 24 32 13 17 1020.2 1019.1 0.0
27/07:30am 15.2 10.0 2.4 42 5.8 SE 19 24 10 13 1020.0 1018.9 0.0
27/07:00am 12.5 7.7 2.4 50 4.4 SE 17 19 9 10 1019.6 1018.5 0.0
27/06:30am 11.2 5.9 2.0 53 4.0 SE 19 20 10 11 1019.3 1018.2 0.0
27/06:00am 10.5 5.9 1.6 54 3.8 SE 15 17 8 9 1019.1 1018.0 0.0
27/05:30am 11.7 6.7 1.6 50 4.3 SE 17 20 9 11 1018.8 1017.7 0.0
27/05:00am 12.4 7.5 1.7 48 4.6 SE 17 19 9 10 1018.6 1017.5 0.0
27/04:30am 13.1 8.1 1.5 45 5.0 SE 17 20 9 11 1018.4 1017.3 0.0
27/04:00am 14.0 8.5 1.6 43 5.4 SE 20 22 11 12 1018.2 1017.1 0.0
27/03:30am 14.3 8.7 0.9 40 5.8 SE 20 24 11 13 1018.2 1017.1 0.0
27/03:00am 14.3 8.5 0.2 38 6.0 SE 20 24 11 13 1017.9 1016.8 0.0
27/02:30am 14.4 8.5 -0.5 36 6.3 SE 20 22 11 12 1017.9 1016.8 0.0
27/02:00am 14.0 8.3 -0.8 36 6.1 SE 19 20 10 11 1017.9 1016.8 0.0
27/01:30am 12.8 7.5 -0.8 39 5.6 SE 17 19 9 10 1017.8 1016.7 0.0
27/01:00am 12.8 8.1 -1.9 36 5.9 SSE 13 15 7 8 1017.7 1016.6 0.0
27/12:30am 15.0 9.5 -2.4 30 7.1 SSE 17 19 9 10 1017.7 1016.6 0.0
27/12:00am 15.7 10.2 -2.3 29 7.4 S 17 19 9 10 1017.9 1016.8 0.0
 
Date/Time
EST
Temp
°C
App
Temp
°C
Dew
Point
Rel
Hum
%
Delta-T
°C
Wind Press
QNH
hPa
Press
MSL
hPa
Rain
since 9 am
mm
Dir
 
Spd
km/h
Gust
km/h
Spd
kts
Gust
kts
26/11:30pm 15.5 9.9 -2.9 28 7.4 SSE 17 19 9 10 1018.0 1016.9 0.0
26/11:00pm 16.1 10.8 -3.4 26 7.8 S 15 17 8 9 1017.9 1016.8 0.0
26/10:30pm 15.9 10.7 -3.1 27 7.7 S 15 17 8 9 1017.8 1016.7 0.0
26/10:00pm 15.8 10.9 -3.6 26 7.7 S 13 17 7 9 1017.9 1016.8 0.0
26/09:30pm 16.5 11.6 -3.6 25 8.1 SSW 13 15 7 8 1017.8 1016.7 0.0
26/09:00pm 17.5 12.2 -3.8 23 8.6 S 15 17 8 9 1017.7 1016.6 0.0
26/08:30pm 18.7 13.4 -4.0 21 9.2 S 15 17 8 9 1017.4 1016.3 0.0
26/08:00pm 19.3 13.6 -3.5 21 9.4 SSE 17 17 9 9 1017.1 1016.0 0.0
26/07:30pm 19.4 13.7 -4.1 20 9.6 SSE 17 20 9 11 1016.5 1015.4 0.0
26/07:00pm 20.5 14.7 -4.6 18 10.3 SSE 17 20 9 11 1016.0 1014.9 0.0
26/06:30pm 20.9 15.4 -5.0 17 10.6 SSE 15 15 8 8 1015.5 1014.4 0.0
26/06:00pm 22.7 17.1 -6.1 14 11.7 S 15 17 8 9 1015.0 1013.9 0.0
26/05:30pm 25.5 20.2 -7.1 11 13.4 S 13 17 7 9 1014.6 1013.5 0.0
26/05:00pm 27.2 20.8 -7.0 10 14.3 SSW 19 26 10 14 1014.2 1013.1 0.0
26/04:30pm 27.6 21.2 -6.7 10 14.4 SSW 19 28 10 15 1014.1 1013.0 0.0
26/04:00pm 28.2 22.7 -5.0 11 14.5 S 15 24 8 13 1013.9 1012.8 0.0
26/03:30pm 28.9 23.3 -3.3 12 14.6 SSW 17 26 9 14 1013.9 1012.8 0.0
26/03:00pm 28.5 23.1 -1.6 14 14.0 SSW 17 32 9 17 1013.9 1012.8 0.0
26/02:30pm 28.7 22.8 -2.4 13 14.3 SSW 19 32 10 17 1014.0 1012.9 0.0
26/02:00pm 28.1 23.3 -0.1 16 13.4 SW 15 26 8 14 1014.0 1012.9 0.0
26/01:30pm 27.0 21.8 -0.1 17 12.8 SW 17 28 9 15 1014.4 1013.3 0.0
26/01:00pm 26.4 21.4 -1.4 16 12.7 SW 15 26 8 14 1014.9 1013.8 0.0
26/12:30pm 26.3 20.6 -0.7 17 12.5 WSW 19 28 10 15 1015.3 1014.2 0.0
26/12:00pm 26.0 21.5 -0.1 18 12.2 S 13 20 7 11 1015.5 1014.4 0.0
26/11:30am 25.5 20.9 1.6 21 11.5 S 15 26 8 14 1016.1 1015.0 0.0
26/11:00am 24.0 19.6 0.4 21 11.0 S 13 22 7 12 1016.4 1015.3 0.0
26/10:30am 22.4 17.3 0.9 24 10.0 SSE 17 28 9 15 1016.9 1015.8 0.0
26/10:00am 22.3 17.3 1.3 25 9.8 SSE 17 24 9 13 1017.1 1016.0 0.0
26/09:30am 21.3 16.2 1.0 26 9.4 SSE 17 24 9 13 1017.3 1016.2 0.0
26/09:00am 21.0 15.5 0.8 26 9.2 SSE 19 24 10 13 1017.3 1016.2 0.0
26/08:30am 19.7 14.4 -0.3 26 8.9 SSE 17 24 9 13 1017.0 1015.9 0.0
26/08:00am 19.1 14.5 -0.8 26 8.7 SSE 13 17 7 9 1016.8 1015.7 0.0
26/07:30am 17.7 13.4 0.8 32 7.5 SSW 13 19 7 10 1016.5 1015.4 0.0
26/07:00am 13.4 10.3 1.1 43 5.3 S 7 9 4 5 1016.5 1015.4 0.0
26/06:30am 13.4 10.3 1.4 44 5.2 S 7 11 4 6 1016.1 1015.0 0.0
26/06:00am 14.2 10.9 2.5 45 5.2 S 9 9 5 5 1015.9 1014.8 0.0
26/05:30am 14.0 10.5 1.3 42 5.5 WSW 9 11 5 6 1015.6 1014.5 0.0
26/05:00am 14.9 11.9 1.1 39 6.0 SW 6 11 3 6 1015.4 1014.3 0.0
26/04:30am 15.6 12.0 0.6 36 6.5 SW 9 11 5 6 1015.0 1013.9 0.0
26/04:00am 17.3 13.4 1.3 34 7.2 S 11 17 6 9 1014.7 1013.6 0.0
26/03:30am 17.2 13.3 1.2 34 7.2 S 11 17 6 9 1014.5 1013.4 0.0
26/03:00am 17.8 14.4 1.7 34 7.3 S 9 11 5 6 1014.4 1013.3 0.0
26/02:30am 18.8 15.0 1.8 32 7.8 SSW 11 15 6 8 1014.2 1013.1 0.0
26/02:00am 19.5 14.6 1.9 31 8.1 SW 17 26 9 14 1014.0 1012.9 0.0
26/01:30am 20.1 14.8 2.0 30 8.4 SW 19 28 10 15 1013.8 1012.7 0.0
26/01:00am 20.8 15.9 2.1 29 8.8 SW 17 26 9 14 1013.8 1012.7 0.0
26/12:30am 20.7 16.6 2.5 30 8.6 SW 13 20 7 11 1013.9 1012.8 0.0
26/12:00am 21.2 16.8 2.5 29 8.9 SW 15 24 8 13 1013.9 1012.8 0.0
 
Date/Time
EST
Temp
°C
App
Temp
°C
Dew
Point
Rel
Hum
%
Delta-T
°C
Wind Press
QNH
hPa
Press
MSL
hPa
Rain
since 9 am
mm
Dir
 
Spd
km/h
Gust
km/h
Spd
kts
Gust
kts
25/11:30pm 21.9 17.1 2.6 28 9.2 SW 17 24 9 13 1013.7 1012.6 0.0
25/11:00pm 22.4 17.2 2.5 27 9.5 SW 19 28 10 15 1013.8 1012.7 0.0
25/10:30pm 22.4 17.6 2.5 27 9.5 SW 17 26 9 14 1013.8 1012.7 0.0
25/10:00pm 20.7 16.6 2.5 30 8.6 SW 13 17 7 9 1013.8 1012.7 0.0
25/09:30pm 20.9 16.4 2.2 29 8.8 WSW 15 17 8 9 1013.8 1012.7 0.0
25/09:00pm 20.1 15.9 1.5 29 8.6 WSW 13 15 7 8 1013.7 1012.6 0.0
25/08:30pm 20.8 16.5 1.1 27 9.1 WSW 13 15 7 8 1013.5 1012.4 0.0
25/08:00pm 21.3 17.0 1.0 26 9.4 WSW 13 15 7 8 1013.3 1012.2 0.0
25/07:30pm 22.2 17.5 0.7 24 9.9 SW 15 15 8 8 1012.8 1011.6 0.0
25/07:00pm 22.8 18.4 0.6 23 10.3 WSW 13 13 7 7 1012.1 1011.0 0.0
25/06:30pm 24.2 19.7 -0.2 20 11.2 WSW 13 15 7 8 1011.6 1010.5 0.0
25/06:00pm 26.5 22.0 -0.5 17 12.6 WSW 13 15 7 8 1011.2 1010.1 0.0
25/05:30pm 29.6 24.7 -0.7 14 14.4 WSW 15 19 8 10 1010.7 1009.6 0.0
25/05:00pm 31.3 26.0 -0.4 13 15.4 WSW 17 24 9 13 1010.2 1009.1 0.0
25/04:30pm 32.1 26.9 0.2 13 15.7 WSW 17 24 9 13 1009.8 1008.7 0.0
25/04:00pm 32.4 28.2 1.5 14 15.6 SW 13 22 7 12 1009.5 1008.4 0.0
25/03:30pm 32.5 28.7 1.6 14 15.6 SW 11 17 6 9 1009.3 1008.2 0.0
25/03:00pm 32.2 27.6 1.3 14 15.5 SW 15 28 8 15 1009.5 1008.4 0.0
25/02:30pm 32.2 27.2 1.3 14 15.5 SW 17 26 9 14 1009.6 1008.5 0.0
25/02:00pm 32.4 28.6 1.5 14 15.6 W 11 20 6 11 1009.8 1008.7 0.0
25/01:30pm 31.9 27.4 2.1 15 15.1 SW 15 26 8 14 1010.0 1008.9 0.0
25/01:00pm 31.3 27.2 2.5 16 14.6 WSW 13 24 7 13 1010.4 1009.3 0.0
25/12:30pm 31.3 27.2 2.5 16 14.6 WNW 13 22 7 12 1010.9 1009.8 0.0
25/12:00pm 30.6 27.9 3.6 18 13.9 NE 7 13 4 7 1011.2 1010.1 0.0
25/11:30am 30.0 26.7 4.6 20 13.3 E 11 17 6 9 1011.7 1010.6 0.0
25/11:00am 29.4 26.3 3.4 19 13.3 SE 9 15 5 8 1012.4 1011.2 0.0
25/10:30am 28.4 25.6 5.3 23 12.1 S 9 15 5 8 1012.7 1011.5 0.0
25/10:00am 27.5 25.6 7.4 28 10.9 NNE 7 11 4 6 1013.1 1012.0 0.0
25/09:30am 26.4 24.2 7.9 31 10.0 NW 9 13 5 7 1013.2 1012.1 0.0
25/09:00am 24.4 22.8 11.4 44 7.4 NNW 11 15 6 8 1013.1 1012.0 0.0
25/08:30am 22.3 20.6 12.5 53 5.6 N 13 19 7 10 1013.1 1012.0 0.0
25/08:00am 20.2 18.6 11.7 58 4.8 NNW 11 15 6 8 1012.9 1011.7 0.0
25/07:30am 16.5 14.9 8.0 57 4.3 NW 6 7 3 4 1012.7 1011.5 0.0
25/07:00am 13.9 12.2 7.4 65 3.2 N 6 6 3 3 1012.4 1011.2 0.0
25/06:30am 11.1 8.9 5.4 68 2.7 N 6 7 3 4 1012.1 1011.0 0.0
25/06:00am 11.5 10.4 5.2 65 2.9 CALM 0 0 0 0 1011.7 1010.6 0.0
25/05:30am 12.8 11.8 5.7 62 3.4 CALM 0 0 0 0 1011.5 1010.4 0.0
25/05:00am 13.1 11.4 5.8 61 3.5 SW 4 6 2 3 1011.4 1010.3 0.0
25/04:30am 12.6 10.8 5.3 61 3.4 WNW 4 7 2 4 1011.0 1009.9 0.0
25/04:00am 12.6 11.6 5.8 63 3.2 CALM 0 0 0 0 1011.0 1009.9 0.0
25/03:30am 12.3 11.2 5.0 61 3.4 CALM 0 0 0 0 1010.9 1009.8 0.0
25/03:00am 13.0 12.0 5.4 60 3.6 CALM 0 0 0 0 1011.0 1009.9 0.0
25/02:30am 13.6 12.5 5.3 57 3.9 CALM 0 0 0 0 1011.0 1009.9 0.0
25/02:00am 14.0 13.1 5.9 58 3.9 CALM 0 0 0 0 1011.1 1010.0 0.0
25/01:30am 13.9 12.8 5.3 56 4.1 CALM 0 0 0 0 1011.3 1010.2 0.0
25/01:00am 14.4 13.5 6.0 57 4.1 CALM 0 0 0 0 1011.4 1010.3 0.0
25/12:30am 14.1 11.8 4.7 53 4.4 W 6 7 3 4 1011.6 1010.5 0.0
25/12:00am 14.7 13.5 4.7 51 4.7 CALM 0 0 0 0 1011.7 1010.6 0.0

Other Formats:

Comma delimited format used in spreadsheet applications
http://www.bom.gov.au/fwo/IDQ60801/IDQ60801.94397.axf

JavaScript Object Notation format (JSON) in row-major order
http://www.bom.gov.au/fwo/IDQ60801/IDQ60801.94397.json